Time;durP1;ratioP1;P1;durP2;ratioP2;P2;SDS_P1;SDS_P2;PMS_P1;PMS_P2;Temp;Humidity;BMP_temperature;BMP_pressure;BME280_temperature;BME280_humidity;BME280_pressure;Samples;Min_cycle;Max_cycle;Signal;HPM_P1;HPM_P2
2022/01/02 00:01:23;;;;;;;8.98;5.17;;;;;;;4.44;100.00;148778.69;1656230;86;21820;-59
2022/01/02 00:03:52;;;;;;;7.80;5.03;;;;;;;4.39;100.00;148767.05;1656365;84;21129;-59
2022/01/02 00:06:24;;;;;;;10.63;5.25;;;;;;;4.34;100.00;148754.14;1656360;86;21080;-58
2022/01/02 00:09:02;;;;;;;8.70;5.37;;;;;;;4.29;100.00;148742.50;1656067;86;21077;-58
2022/01/02 00:11:28;;;;;;;8.78;5.22;;;;;;;4.27;100.00;148737.34;1656375;84;21631;-58
2022/01/02 00:13:58;;;;;;;7.80;5.28;;;;;;;4.25;100.00;148732.19;1656824;86;20948;-58
2022/01/02 00:16:25;;;;;;;7.83;4.70;;;;;;;4.23;100.00;148725.77;1656324;84;21606;-58
2022/01/02 00:19:05;;;;;;;11.20;4.83;;;;;;;4.19;100.00;148715.39;1656315;86;21068;-58
2022/01/02 00:21:28;;;;;;;8.73;4.70;;;;;;;4.14;100.00;148703.80;1654763;84;21150;-60
2022/01/02 00:24:04;;;;;;;7.03;4.85;;;;;;;4.09;100.00;148690.84;1655718;86;21029;-58
2022/01/02 00:26:35;;;;;;;9.33;4.42;;;;;;;4.05;100.00;148680.53;1655057;86;21116;-57
2022/01/02 00:28:56;;;;;;;8.30;4.62;;;;;;;4.03;100.00;148675.37;1655421;86;21007;-58
2022/01/02 00:31:23;;;;;;;8.38;4.67;;;;;;;3.97;100.00;148662.47;1655719;86;21083;-58
2022/01/02 00:33:52;;;;;;;8.20;5.10;;;;;;;3.93;100.00;148652.16;1656798;86;21521;-57
2022/01/02 00:36:18;;;;;;;7.20;4.72;;;;;;;3.91;100.00;148646.98;1655976;86;21270;-59
2022/01/02 00:38:45;;;;;;;8.63;4.42;;;;;;;3.89;100.00;148641.83;1656562;86;21069;-58
2022/01/02 00:41:12;;;;;;;8.58;4.87;;;;;;;3.87;100.00;148636.67;1656374;85;21559;-58
2022/01/02 00:43:48;;;;;;;7.45;4.90;;;;;;;3.84;100.00;148628.88;1656154;86;21554;-58
2022/01/02 00:46:14;;;;;;;8.33;4.87;;;;;;;3.81;100.00;148621.14;1656532;85;21140;-58
2022/01/02 00:48:44;;;;;;;8.20;4.90;;;;;;;3.73;100.00;148603.09;1656127;84;21388;-63
2022/01/02 00:51:47;;;;;;;8.10;4.92;;;;;;;3.69;100.00;148592.77;1656521;86;21394;-63
2022/01/02 00:54:13;;;;;;;8.93;5.10;;;;;;;3.66;100.00;148585.03;1636921;86;21166;-63
2022/01/02 00:56:43;;;;;;;8.48;5.20;;;;;;;3.63;100.00;148575.97;1636122;85;21108;-58
2022/01/02 00:59:15;;;;;;;8.38;5.22;;;;;;;3.59;100.00;148566.92;1666518;85;21062;-56
2022/01/02 01:01:42;;;;;;;8.65;4.75;;;;;;;3.55;100.00;148556.61;1664085;85;21093;-59
2022/01/02 01:04:08;;;;;;;7.20;4.40;;;;;;;3.51;100.00;148546.28;1664652;84;21510;-58
2022/01/02 01:06:36;;;;;;;6.55;4.35;;;;;;;3.47;100.00;148535.97;1616100;86;21147;-57
2022/01/02 01:09:05;;;;;;;7.12;4.40;;;;;;;3.42;100.00;148525.61;1665836;86;21436;-57
2022/01/02 01:11:32;;;;;;;8.13;5.60;;;;;;;3.37;100.00;148512.72;1659324;84;21771;-57
2022/01/02 01:14:00;;;;;;;8.85;5.05;;;;;;;3.34;100.00;148504.97;1665488;84;21061;-60
2022/01/02 01:16:27;;;;;;;9.70;4.87;;;;;;;3.32;100.00;148498.56;1664341;86;21161;-57
2022/01/02 01:18:54;;;;;;;8.48;5.05;;;;;;;3.28;100.00;148489.50;1663149;86;21152;-57
2022/01/02 01:21:21;;;;;;;8.40;4.30;;;;;;;3.26;100.00;148484.34;1656598;86;21314;-57
2022/01/02 01:23:49;;;;;;;8.83;4.78;;;;;;;3.23;100.00;148476.61;1662578;84;21109;-57
2022/01/02 01:26:17;;;;;;;9.93;5.33;;;;;;;3.20;100.00;148468.83;1662977;84;21149;-57
2022/01/02 01:28:45;;;;;;;7.17;4.58;;;;;;;3.13;100.00;148453.36;1660380;86;21163;-57
2022/01/02 01:31:14;;;;;;;9.85;5.28;;;;;;;3.08;100.00;148439.16;1665984;84;21479;-61
2022/01/02 01:33:40;;;;;;;7.87;4.53;;;;;;;3.02;100.00;148425.00;1664119;84;21097;-63
2022/01/02 01:36:07;;;;;;;7.53;4.92;;;;;;;2.99;100.00;148417.27;1663332;84;21018;-58
2022/01/02 01:38:36;;;;;;;7.35;4.62;;;;;;;2.95;100.00;148406.91;1667720;84;21033;-59
2022/01/02 01:41:13;;;;;;;8.78;4.78;;;;;;;2.92;100.00;148399.17;1665116;84;21531;-59
2022/01/02 01:43:53;;;;;;;5.95;4.17;;;;;;;2.90;100.00;148395.33;1663819;84;21571;-56
2022/01/02 01:46:08;;;;;;;8.25;4.45;;;;;;;2.84;100.00;148381.12;1663537;84;21566;-63
2022/01/02 01:48:36;;;;;;;6.50;4.30;;;;;;;2.83;100.00;148378.55;1661973;85;21109;-62
2022/01/02 01:51:03;;;;;;;5.42;3.83;;;;;;;2.80;100.00;148369.50;1665666;86;21063;-62
2022/01/02 01:53:30;;;;;;;7.40;3.35;;;;;;;2.77;100.00;148363.09;1663949;84;21375;-61
2022/01/02 01:55:56;;;;;;;7.25;3.83;;;;;;;2.76;100.00;148359.19;1665256;84;21119;-62
2022/01/02 01:58:24;;;;;;;6.85;3.77;;;;;;;2.76;100.00;148359.19;1665863;84;21113;-62
2022/01/02 02:00:50;;;;;;;6.30;3.55;;;;;;;2.77;100.00;148363.09;1666068;84;21062;-64
2022/01/02 02:03:21;;;;;;;6.20;3.60;;;;;;;2.77;100.00;148363.09;1660392;86;21144;-63
2022/01/02 02:05:47;;;;;;;4.97;3.17;;;;;;;2.76;100.00;148359.19;1636005;86;21140;-63
2022/01/02 02:08:16;;;;;;;6.55;3.08;;;;;;;2.75;100.00;148356.63;1664722;86;22179;-63
2022/01/02 02:10:46;;;;;;;5.72;3.08;;;;;;;2.75;100.00;148356.63;1663509;84;21101;-57
2022/01/02 02:13:12;;;;;;;4.50;2.92;;;;;;;2.75;100.00;148357.88;1663272;84;21133;-58
2022/01/02 02:15:42;;;;;;;6.83;3.00;;;;;;;2.76;100.00;148359.19;1660535;84;21109;-57
2022/01/02 02:18:12;;;;;;;2.95;2.17;;;;;;;2.73;100.00;148352.72;1658597;86;21120;-57
2022/01/02 02:20:39;;;;;;;4.97;2.50;;;;;;;2.72;100.00;148350.16;1658732;86;21108;-58
2022/01/02 02:23:08;;;;;;;3.45;2.22;;;;;;;2.72;100.00;148350.16;1648236;86;21048;-57
2022/01/02 02:25:37;;;;;;;3.22;2.20;;;;;;;2.72;100.00;148350.16;1648586;86;21502;-62
2022/01/02 02:28:16;;;;;;;3.95;2.25;;;;;;;2.74;100.00;148355.31;1648649;86;21527;-62
2022/01/02 02:30:46;;;;;;;3.27;2.10;;;;;;;2.75;100.00;148357.88;1649656;84;21154;-63
2022/01/02 02:33:15;;;;;;;3.58;1.98;;;;;;;2.74;100.00;148355.31;1651038;86;21481;-59
2022/01/02 02:35:43;;;;;;;2.35;1.80;;;;;;;2.74;100.00;148355.31;1646357;86;21575;-57
2022/01/02 02:38:10;;;;;;;3.02;1.90;;;;;;;2.72;100.00;148350.16;1650539;86;21670;-57
2022/01/02 02:40:39;;;;;;;2.65;1.57;;;;;;;2.71;100.00;148348.87;1659477;85;21646;-60
2022/01/02 02:51:49;;;;;;;3.77;1.50;;;;;;;2.56;100.00;148310.17;1658331;86;21161;-62
2022/01/02 02:54:26;;;;;;;2.50;1.65;;;;;;;2.53;100.00;148303.70;1649955;86;21366;-62
2022/01/02 02:56:59;;;;;;;2.30;1.57;;;;;;;2.51;100.00;148298.56;1659274;86;21665;-62
2022/01/02 02:59:30;;;;;;;2.72;1.37;;;;;;;2.48;100.00;148289.56;1650510;86;21334;-58
2022/01/02 03:01:57;;;;;;;1.85;1.12;;;;;;;2.48;100.00;148289.56;1616154;85;21615;-57
2022/01/02 03:04:25;;;;;;;2.05;1.32;;;;;;;2.48;100.00;148290.83;1647753;86;21454;-57
2022/01/02 03:06:52;;;;;;;1.92;1.55;;;;;;;2.49;100.00;148292.14;1656659;86;21114;-58
2022/01/02 03:09:38;;;;;;;3.02;1.15;;;;;;;2.48;100.00;148289.56;1656641;85;21110;-58
2022/01/02 03:11:47;;;;;;;3.05;1.20;;;;;;;2.49;100.00;148293.41;1645849;86;21561;-57
2022/01/02 03:14:14;;;;;;;2.45;1.40;;;;;;;2.50;100.00;148295.97;1651239;84;21103;-58
2022/01/02 03:16:42;;;;;;;2.77;1.40;;;;;;;2.47;100.00;148288.25;1652498;86;21125;-57
2022/01/02 03:19:09;;;;;;;2.17;1.35;;;;;;;2.44;100.00;148280.52;1649484;86;21041;-63
2022/01/02 03:21:36;;;;;;;1.87;1.25;;;;;;;2.41;100.00;148272.78;1651670;86;21136;-58
2022/01/02 03:24:04;;;;;;;2.50;1.30;;;;;;;2.40;100.00;148271.47;1666445;86;21519;-57
2022/01/02 03:26:31;;;;;;;5.15;1.60;;;;;;;2.37;100.00;148263.75;1664005;84;21587;-58
2022/01/02 03:28:58;;;;;;;3.08;1.50;;;;;;;2.35;100.00;148258.59;1661517;84;21063;-57
2022/01/02 03:31:26;;;;;;;2.35;1.55;;;;;;;2.33;100.00;148252.17;1665106;84;21093;-58
2022/01/02 03:33:52;;;;;;;2.33;1.52;;;;;;;2.31;100.00;148246.97;1660436;84;21077;-62
2022/01/02 03:36:19;;;;;;;1.35;1.17;;;;;;;2.28;100.00;148240.56;1640965;84;21456;-62
2022/01/02 03:38:47;;;;;;;2.37;1.20;;;;;;;2.26;100.00;148235.41;1660848;86;21578;-57
2022/01/02 03:41:14;;;;;;;2.27;1.40;;;;;;;2.26;100.00;148236.66;1662152;86;21018;-58
2022/01/02 03:43:41;;;;;;;1.95;1.12;;;;;;;2.26;100.00;148236.66;1667554;84;21127;-58
2022/01/02 03:46:08;;;;;;;2.25;1.20;;;;;;;2.26;100.00;148236.66;1661827;84;21181;-61
2022/01/02 03:48:35;;;;;;;1.85;1.10;;;;;;;2.27;100.00;148239.25;1662410;86;21099;-61
2022/01/02 03:51:02;;;;;;;1.77;1.10;;;;;;;2.27;100.00;148239.25;1660417;86;21171;-62
2022/01/02 03:53:28;;;;;;;2.15;1.15;;;;;;;2.31;100.00;148246.97;1656933;86;21843;-62
2022/01/02 03:55:55;;;;;;;1.95;1.45;;;;;;;2.32;100.00;148250.86;1664359;86;21137;-62
2022/01/02 03:58:23;;;;;;;1.87;1.10;;;;;;;2.32;100.00;148249.55;1661821;86;21078;-57
2022/01/02 04:00:50;;;;;;;2.35;0.90;;;;;;;2.31;100.00;148246.97;1661747;84;21506;-57
2022/01/02 04:03:17;;;;;;;2.85;1.10;;;;;;;2.31;100.00;148246.97;1665176;86;20943;-57
2022/01/02 04:05:44;;;;;;;3.50;0.90;;;;;;;2.32;100.00;148249.55;1663763;86;21076;-57
2022/01/02 04:08:11;;;;;;;1.67;0.85;;;;;;;2.31;100.00;148246.97;1666331;86;21128;-58
2022/01/02 04:10:38;;;;;;;4.42;1.02;;;;;;;2.34;100.00;148254.75;1666592;84;21057;-57
2022/01/02 04:13:06;;;;;;;1.77;0.80;;;;;;;2.37;100.00;148262.48;1663167;84;21853;-58
2022/01/02 04:15:33;;;;;;;2.22;0.93;;;;;;;2.40;100.00;148270.20;1662718;86;21069;-58
2022/01/02 04:18:02;;;;;;;1.15;0.72;;;;;;;2.41;100.00;148274.05;1666194;85;20896;-58
2022/01/02 04:20:29;;;;;;;2.00;0.75;;;;;;;2.44;100.00;148280.52;1665411;86;21526;-57
2022/01/02 04:22:57;;;;;;;2.30;1.00;;;;;;;2.45;100.00;148283.09;1659183;85;21013;-57
2022/01/02 04:25:25;;;;;;;0.95;0.70;;;;;;;2.44;100.00;148280.52;1663852;86;21157;-57
2022/01/02 04:27:52;;;;;;;3.33;0.70;;;;;;;2.44;100.00;148280.52;1666283;84;21082;-57
2022/01/02 04:30:19;;;;;;;1.20;0.85;;;;;;;2.44;100.00;148280.52;1665680;84;21062;-58
2022/01/02 04:32:48;;;;;;;1.45;0.70;;;;;;;2.44;100.00;148280.52;1663574;86;21631;-57
2022/01/02 04:35:15;;;;;;;1.50;0.80;;;;;;;2.45;100.00;148281.83;1658774;86;21055;-57
2022/01/02 04:37:42;;;;;;;2.15;0.93;;;;;;;2.46;100.00;148285.67;1662482;84;21132;-57
2022/01/02 04:40:10;;;;;;;5.12;1.20;;;;;;;2.50;100.00;148295.97;1659427;86;21034;-59
2022/01/02 04:42:38;;;;;;;9.63;4.20;;;;;;;2.53;100.00;148303.70;1662773;86;21062;-58
2022/01/02 04:45:08;;;;;;;24.25;10.25;;;;;;;2.55;99.55;148308.91;1666499;85;21066;-57
2022/01/02 04:47:35;;;;;;;31.00;13.72;;;;;;;2.58;98.70;148316.64;1666533;84;21590;-58
2022/01/02 04:50:04;;;;;;;8.73;4.15;;;;;;;2.63;97.66;148326.95;1665873;86;21114;-58
2022/01/02 04:52:33;;;;;;;16.62;8.30;;;;;;;2.67;96.98;148337.27;1657912;85;21035;-58
2022/01/02 04:54:59;;;;;;;33.30;14.23;;;;;;;2.71;96.21;148347.56;1656916;85;21517;-60
2022/01/02 04:57:26;;;;;;;44.53;20.12;;;;;;;2.73;95.10;148352.72;1656656;85;21063;-58
2022/01/02 04:59:53;;;;;;;30.40;12.65;;;;;;;2.77;94.10;148363.09;1656919;84;20995;-58
2022/01/02 05:02:20;;;;;;;31.85;14.98;;;;;;;2.80;92.12;148370.81;1656822;86;21955;-58
2022/01/02 05:04:48;;;;;;;8.13;2.60;;;;;;;2.86;91.82;148384.97;1633682;85;21773;-57
2022/01/02 05:07:15;;;;;;;0.62;0.30;;;;;;;2.90;89.38;148394.02;1656146;85;21151;-58
2022/01/02 05:09:44;;;;;;;3.62;1.30;;;;;;;2.97;85.81;148412.06;1655939;84;21710;-57
2022/01/02 05:12:11;;;;;;;2.00;0.42;;;;;;;3.07;85.48;148437.89;1656608;85;21032;-58
2022/01/02 05:14:38;;;;;;;1.07;0.47;;;;;;;3.14;82.85;148454.67;1656287;84;21199;-58
2022/01/02 05:17:05;;;;;;;4.03;1.87;;;;;;;3.20;81.90;148468.83;1656578;85;20972;-58
2022/01/02 05:19:32;;;;;;;7.75;3.83;;;;;;;3.23;81.62;148476.61;1655968;85;21119;-59
2022/01/02 05:21:59;;;;;;;25.05;4.92;;;;;;;3.22;81.78;148475.31;1660836;85;21047;-57
2022/01/02 05:24:26;;;;;;;6.62;1.45;;;;;;;3.21;82.01;148471.47;1680529;85;21129;-57
2022/01/02 05:26:55;;;;;;;1.57;0.50;;;;;;;3.18;82.27;148463.67;1680596;84;21184;-58
2022/01/02 05:29:23;;;;;;;1.25;0.65;;;;;;;3.13;81.10;148453.36;1680427;85;21065;-59
2022/01/02 05:31:50;;;;;;;1.27;0.80;;;;;;;3.12;80.44;148450.78;1680827;84;21657;-58
2022/01/02 05:34:17;;;;;;;1.30;0.70;;;;;;;3.11;80.54;148448.20;1680861;85;21054;-57
2022/01/02 05:36:48;;;;;;;7.65;0.40;;;;;;;3.09;80.31;148443.05;1680898;85;21066;-58
2022/01/02 05:39:12;;;;;;;1.05;0.57;;;;;;;3.07;80.59;148437.89;1680256;84;21219;-59
2022/01/02 05:41:39;;;;;;;1.27;0.60;;;;;;;3.05;80.98;148431.42;1680673;84;21058;-58
2022/01/02 05:44:06;;;;;;;0.82;0.40;;;;;;;3.03;81.56;148426.27;1681213;85;21409;-58
2022/01/02 05:46:34;;;;;;;1.72;0.30;;;;;;;2.98;81.54;148414.64;1680576;85;21491;-59
2022/01/02 05:49:00;;;;;;;0.40;0.40;;;;;;;2.93;81.53;148401.75;1681011;85;21011;-59
2022/01/02 05:51:27;;;;;;;1.47;0.50;;;;;;;2.90;81.86;148394.02;1680921;85;21091;-59
2022/01/02 05:53:55;;;;;;;11.45;5.10;;;;;;;2.84;81.99;148381.12;1680611;85;21271;-59
2022/01/02 05:56:22;;;;;;;5.00;1.40;;;;;;;2.82;82.48;148375.97;1681004;85;21313;-58
2022/01/02 05:58:49;;;;;;;4.47;2.08;;;;;;;2.77;82.75;148363.09;1680951;85;21034;-59
2022/01/02 06:01:16;;;;;;;8.05;3.90;;;;;;;2.70;83.12;148346.31;1681224;85;21370;-59
2022/01/02 06:03:43;;;;;;;30.75;10.15;;;;;;;2.67;83.61;148337.27;1680777;85;21500;-59
2022/01/02 06:06:09;;;;;;;44.60;19.45;;;;;;;2.63;84.28;148326.95;1681090;84;21082;-58
2022/01/02 06:08:37;;;;;;;50.60;21.30;;;;;;;2.62;84.83;148324.38;1680769;84;21300;-58
2022/01/02 06:11:05;;;;;;;61.37;26.95;;;;;;;2.64;85.23;148330.80;1681134;85;21405;-58
2022/01/02 06:13:31;;;;;;;38.55;16.75;;;;;;;2.68;85.72;148339.84;1680940;85;21242;-58
2022/01/02 06:16:00;;;;;;;32.95;13.95;;;;;;;2.73;86.12;148352.72;1681183;85;21523;-58
2022/01/02 06:18:27;;;;;;;44.15;19.02;;;;;;;2.75;86.45;148357.88;1680910;85;21101;-58
2022/01/02 06:20:53;;;;;;;37.23;17.73;;;;;;;2.82;86.83;148375.97;1681180;85;21126;-58
2022/01/02 06:23:20;;;;;;;49.77;22.40;;;;;;;2.83;87.16;148378.55;1680827;85;21653;-57
2022/01/02 06:25:49;;;;;;;35.03;16.30;;;;;;;2.83;87.39;148377.23;1681093;85;21090;-58
2022/01/02 06:28:15;;;;;;;57.65;25.97;;;;;;;2.79;87.91;148368.23;1680906;85;21845;-58
2022/01/02 06:30:43;;;;;;;27.42;11.83;;;;;;;2.71;88.29;148348.87;1680458;85;20963;-58
2022/01/02 06:33:11;;;;;;;19.95;9.55;;;;;;;2.64;88.56;148329.53;1681019;84;20943;-58
2022/01/02 06:35:38;;;;;;;42.85;19.10;;;;;;;2.60;88.46;148319.22;1680504;84;21113;-58
2022/01/02 06:38:17;;;;;;;25.95;12.03;;;;;;;2.56;88.29;148311.48;1680975;85;20971;-58
2022/01/02 06:40:46;;;;;;;38.65;17.80;;;;;;;2.55;87.56;148308.91;1680314;85;21155;-57
2022/01/02 06:43:15;;;;;;;10.75;3.45;;;;;;;2.54;86.49;148305.02;1680838;85;21389;-57
2022/01/02 06:45:44;;;;;;;33.78;15.98;;;;;;;2.52;85.75;148301.13;1680811;85;21022;-58
2022/01/02 06:48:11;;;;;;;53.00;25.62;;;;;;;2.55;85.89;148308.91;1681237;84;21082;-57
2022/01/02 06:50:39;;;;;;;45.15;20.72;;;;;;;2.58;86.25;148316.64;1680790;84;21137;-58
2022/01/02 06:53:06;;;;;;;48.70;18.98;;;;;;;2.63;86.66;148326.95;1681288;85;22039;-58
2022/01/02 06:55:34;;;;;;;72.47;28.38;;;;;;;2.64;86.12;148329.53;1680807;85;21054;-58
2022/01/02 06:58:03;;;;;;;47.48;19.40;;;;;;;2.64;85.98;148329.53;1681154;85;21027;-58
2022/01/02 07:00:30;;;;;;;40.10;15.23;;;;;;;2.63;85.83;148326.95;1681095;85;20947;-58
2022/01/02 07:02:56;;;;;;;64.87;24.25;;;;;;;2.60;86.07;148319.22;1681042;85;22144;-58
2022/01/02 07:05:23;;;;;;;55.58;19.67;;;;;;;2.57;86.38;148314.06;1681135;84;21110;-58
2022/01/02 07:07:52;;;;;;;32.58;12.63;;;;;;;2.57;87.04;148312.75;1680731;84;21014;-58
2022/01/02 07:10:20;;;;;;;20.08;8.25;;;;;;;2.55;87.18;148308.91;1680971;84;21527;-58
2022/01/02 07:12:46;;;;;;;24.10;8.48;;;;;;;2.55;87.65;148307.59;1680853;85;21107;-58
2022/01/02 07:15:13;;;;;;;54.80;21.10;;;;;;;2.55;87.98;148308.91;1681224;84;21452;-58
2022/01/02 07:17:40;;;;;;;41.30;16.62;;;;;;;2.54;88.13;148306.34;1680749;85;21147;-58
2022/01/02 07:20:08;;;;;;;40.40;15.00;;;;;;;2.52;87.78;148301.13;1681276;85;20987;-58
2022/01/02 07:22:36;;;;;;;99.67;36.38;;;;;;;2.51;87.70;148298.56;1682215;85;21105;-58
2022/01/02 07:25:04;;;;;;;48.02;18.35;;;;;;;2.51;87.71;148298.56;1688391;84;20934;-58
2022/01/02 07:27:33;;;;;;;44.30;17.73;;;;;;;2.51;87.25;148298.56;1688693;84;21459;-59
2022/01/02 07:30:01;;;;;;;53.55;20.45;;;;;;;2.52;86.72;148299.88;1688408;84;21165;-59
2022/01/02 07:32:29;;;;;;;18.48;7.08;;;;;;;2.53;86.25;148302.44;1687969;84;21054;-59
2022/01/02 07:34:56;;;;;;;16.23;7.47;;;;;;;2.56;85.71;148310.17;1688397;84;21125;-58
2022/01/02 07:37:22;;;;;;;9.25;3.72;;;;;;;2.63;85.51;148326.95;1688396;85;21575;-58
2022/01/02 07:39:49;;;;;;;29.87;12.25;;;;;;;2.67;84.23;148338.58;1688285;85;21129;-58
2022/01/02 07:42:15;;;;;;;39.15;17.30;;;;;;;2.72;84.32;148350.16;1688772;84;21132;-58
2022/01/02 07:44:44;;;;;;;16.25;5.92;;;;;;;2.77;84.36;148361.77;1687421;85;21057;-58
2022/01/02 07:47:10;;;;;;;2.55;1.35;;;;;;;2.78;82.19;148364.34;1688912;84;21050;-58
2022/01/02 07:49:37;;;;;;;3.02;1.70;;;;;;;2.76;82.10;148360.45;1688183;84;20975;-59
2022/01/02 07:52:04;;;;;;;6.78;2.80;;;;;;;2.73;81.47;148352.72;1688158;84;21483;-59
2022/01/02 07:54:30;;;;;;;2.05;1.05;;;;;;;2.73;82.03;148352.72;1687862;84;21145;-58
2022/01/02 07:56:57;;;;;;;12.58;5.50;;;;;;;2.71;81.44;148347.56;1687734;84;21649;-58
2022/01/02 07:59:23;;;;;;;4.87;1.20;;;;;;;2.70;81.26;148346.31;1687736;84;21023;-58
2022/01/02 08:01:51;;;;;;;32.10;13.15;;;;;;;2.69;80.68;148342.42;1688141;84;21093;-57
2022/01/02 08:04:18;;;;;;;4.28;2.10;;;;;;;2.67;80.46;148337.27;1688537;85;21002;-58
2022/01/02 08:06:46;;;;;;;7.37;2.72;;;;;;;2.67;79.82;148337.27;1688572;85;21538;-58
2022/01/02 08:09:13;;;;;;;23.18;10.63;;;;;;;2.69;79.66;148342.42;1688635;84;21415;-58
2022/01/02 08:11:39;;;;;;;25.25;9.25;;;;;;;2.69;78.97;148343.73;1688193;84;21151;-59
2022/01/02 08:14:06;;;;;;;8.38;4.20;;;;;;;2.71;79.03;148348.87;1688673;84;21086;-58
2022/01/02 08:16:34;;;;;;;12.53;5.15;;;;;;;2.72;77.11;148350.16;1688391;84;21057;-58
2022/01/02 08:19:02;;;;;;;6.97;2.98;;;;;;;2.71;76.22;148348.87;1688648;85;21151;-58
2022/01/02 08:21:29;;;;;;;2.98;1.20;;;;;;;2.72;76.30;148351.47;1688549;85;20942;-58
2022/01/02 08:23:55;;;;;;;6.95;3.40;;;;;;;2.76;75.90;148360.45;1670496;84;21503;-58
2022/01/02 08:26:23;;;;;;;6.53;2.30;;;;;;;2.79;76.29;148368.23;1656827;86;21036;-59
2022/01/02 08:28:52;;;;;;;12.28;5.78;;;;;;;2.81;75.34;148373.41;1656586;84;21065;-59
2022/01/02 08:31:18;;;;;;;14.83;5.72;;;;;;;2.83;73.55;148377.23;1656976;84;21160;-58
2022/01/02 08:33:45;;;;;;;1.50;0.95;;;;;;;2.83;73.72;148378.55;1656803;84;21107;-59
2022/01/02 08:36:11;;;;;;;2.08;0.90;;;;;;;2.85;73.27;148383.70;1657426;86;21009;-58
2022/01/02 08:38:38;;;;;;;12.98;5.80;;;;;;;2.88;73.64;148388.86;1656946;84;21043;-58
2022/01/02 08:41:05;;;;;;;2.27;1.30;;;;;;;2.90;74.24;148395.33;1657340;84;20932;-59
2022/01/02 08:43:31;;;;;;;6.28;3.17;;;;;;;2.94;74.72;148404.33;1656980;86;21794;-59
2022/01/02 08:45:58;;;;;;;4.10;1.57;;;;;;;3.00;75.43;148419.84;1657152;86;21367;-58
2022/01/02 08:48:24;;;;;;;7.15;2.08;;;;;;;3.06;75.24;148435.31;1656924;84;20936;-58
2022/01/02 08:50:53;;;;;;;0.98;0.80;;;;;;;3.16;75.62;148459.83;1657105;85;20971;-58
2022/01/02 08:53:20;;;;;;;7.08;1.20;;;;;;;3.19;74.68;148467.56;1657060;84;21091;-58
2022/01/02 08:55:46;;;;;;;5.05;2.22;;;;;;;3.19;75.28;148466.25;1656834;85;21476;-58
2022/01/02 08:58:13;;;;;;;7.10;2.70;;;;;;;3.18;76.09;148463.67;1657384;85;20956;-60
2022/01/02 09:00:40;;;;;;;56.58;26.73;;;;;;;3.19;76.01;148466.25;1656640;84;21501;-59
2022/01/02 09:03:07;;;;;;;36.98;15.98;;;;;;;3.17;75.82;148462.41;1657622;84;21429;-58
2022/01/02 09:05:34;;;;;;;17.57;7.78;;;;;;;3.19;75.29;148466.25;1656788;84;21078;-58
2022/01/02 09:08:02;;;;;;;65.32;27.13;;;;;;;3.22;75.58;148474.03;1657011;84;21060;-58
2022/01/02 09:10:29;;;;;;;4.30;1.85;;;;;;;3.27;75.53;148486.94;1656817;86;21043;-59
2022/01/02 09:12:57;;;;;;;1.22;0.80;;;;;;;3.29;72.79;148493.34;1656911;86;21055;-58
2022/01/02 09:15:25;;;;;;;1.22;0.68;;;;;;;3.22;70.69;148475.31;1656935;84;20956;-58
2022/01/02 09:17:51;;;;;;;4.00;1.10;;;;;;;3.14;70.84;148455.94;1656945;84;21067;-59
2022/01/02 09:20:18;;;;;;;15.55;6.45;;;;;;;3.12;72.17;148449.52;1656671;84;20904;-59
2022/01/02 09:22:46;;;;;;;2.80;1.20;;;;;;;3.10;72.24;148445.62;1656383;84;21105;-59
2022/01/02 09:25:13;;;;;;;3.20;0.80;;;;;;;3.12;72.15;148450.78;1656822;84;21091;-59
2022/01/02 09:27:41;;;;;;;1.80;0.90;;;;;;;3.11;71.16;148446.94;1656494;84;21146;-58
2022/01/02 09:30:09;;;;;;;15.23;7.00;;;;;;;3.11;71.55;148448.20;1657163;86;21000;-59
2022/01/02 09:32:37;;;;;;;2.60;1.22;;;;;;;3.10;72.52;148445.62;1656774;85;21026;-59
2022/01/02 09:35:06;;;;;;;1.02;0.72;;;;;;;3.11;71.25;148446.94;1657079;86;20971;-58
2022/01/02 09:37:34;;;;;;;1.50;1.00;;;;;;;3.11;71.18;148448.20;1656836;86;20948;-59
2022/01/02 09:40:03;;;;;;;1.22;0.90;;;;;;;3.09;71.61;148443.05;1656857;86;21007;-59
2022/01/02 09:42:31;;;;;;;1.67;0.80;;;;;;;3.06;70.59;148435.31;1656876;86;21126;-58
2022/01/02 09:44:58;;;;;;;1.65;0.62;;;;;;;3.03;69.86;148427.58;1634446;85;21155;-59
2022/01/02 09:47:24;;;;;;;19.45;9.40;;;;;;;3.02;70.58;148425.00;1656575;86;20953;-59
2022/01/02 09:49:51;;;;;;;18.70;8.20;;;;;;;3.03;71.48;148427.58;1656750;86;21025;-59
2022/01/02 09:52:19;;;;;;;25.90;11.20;;;;;;;3.03;71.84;148427.58;1657394;85;20992;-58
2022/01/02 09:54:45;;;;;;;5.15;2.00;;;;;;;3.04;72.81;148428.84;1656705;85;21729;-59
2022/01/02 09:57:13;;;;;;;18.42;9.43;;;;;;;3.07;71.95;148437.89;1660876;84;21900;-59
2022/01/02 09:59:40;;;;;;;4.60;2.08;;;;;;;3.06;72.11;148435.31;1661222;84;21491;-58
2022/01/02 10:02:07;;;;;;;8.48;4.35;;;;;;;3.04;72.58;148430.16;1658566;86;21020;-59
2022/01/02 10:04:37;;;;;;;6.58;2.20;;;;;;;3.05;73.53;148432.73;1658691;84;21142;-59
2022/01/02 10:07:06;;;;;;;3.62;1.17;;;;;;;3.10;73.30;148445.62;1663627;86;21521;-58
2022/01/02 10:09:37;;;;;;;2.52;1.22;;;;;;;3.13;72.86;148452.09;1659867;86;21913;-58
2022/01/02 10:12:29;;;;;;;23.85;12.15;;;;;;;3.19;73.17;148466.25;1660245;85;21029;-58
2022/01/02 10:15:15;;;;;;;3.25;1.60;;;;;;;3.27;73.10;148486.94;1660140;86;21143;-58
2022/01/02 10:17:56;;;;;;;43.13;19.87;;;;;;;3.34;71.88;148504.97;1662644;86;21859;-58
2022/01/02 10:20:25;;;;;;;11.48;5.35;;;;;;;3.33;71.09;148502.41;1659735;86;21085;-58
2022/01/02 10:23:06;;;;;;;7.72;3.90;;;;;;;3.27;70.51;148486.94;1661266;84;21660;-58
2022/01/02 10:25:53;;;;;;;29.27;12.07;;;;;;;3.22;71.11;148475.31;1666069;85;21070;-58
2022/01/02 10:28:36;;;;;;;22.93;10.23;;;;;;;3.14;71.83;148454.67;1664805;86;21087;-59
2022/01/02 10:31:10;;;;;;;3.08;1.60;;;;;;;3.06;72.57;148435.31;1657402;85;21524;-58
2022/01/02 10:33:58;;;;;;;15.53;7.53;;;;;;;2.95;71.21;148408.22;1661740;86;21602;-58
2022/01/02 10:36:36;;;;;;;22.50;9.78;;;;;;;2.84;71.40;148381.12;1661608;84;21868;-60
2022/01/02 10:39:18;;;;;;;7.30;3.45;;;;;;;2.81;72.04;148373.41;1661474;86;21050;-59
2022/01/02 10:41:48;;;;;;;3.65;1.50;;;;;;;2.84;72.64;148381.12;1663425;86;20996;-58
2022/01/02 10:44:34;;;;;;;12.85;6.67;;;;;;;2.96;72.96;148409.48;1662326;84;21021;-58
2022/01/02 10:47:15;;;;;;;3.22;1.30;;;;;;;3.03;73.07;148426.27;1665728;86;21901;-60
2022/01/02 10:50:07;;;;;;;59.10;26.35;;;;;;;3.07;72.00;148437.89;1660772;86;21132;-59
2022/01/02 10:52:40;;;;;;;72.20;31.23;;;;;;;3.07;71.65;148437.89;1661491;86;21118;-65
2022/01/02 10:55:23;;;;;;;6.60;3.67;;;;;;;3.03;71.25;148427.58;1665006;86;21397;-59
2022/01/02 10:57:52;;;;;;;3.37;1.90;;;;;;;3.05;71.50;148432.73;1664286;85;21535;-58
2022/01/02 11:00:25;;;;;;;14.07;7.10;;;;;;;3.04;71.14;148430.16;1656592;86;21156;-57
2022/01/02 11:02:52;;;;;;;7.00;2.58;;;;;;;2.99;71.24;148417.27;1663415;84;21154;-58
2022/01/02 11:05:21;;;;;;;11.38;6.08;;;;;;;2.96;71.12;148409.48;1665241;86;21102;-58
2022/01/02 11:07:52;;;;;;;5.25;1.82;;;;;;;2.95;71.40;148406.91;1662918;86;21542;-58
2022/01/02 11:10:21;;;;;;;6.08;3.22;;;;;;;2.94;70.73;148404.33;1663855;84;21059;-58
2022/01/02 11:12:49;;;;;;;3.25;1.77;;;;;;;2.92;70.67;148400.48;1664120;84;21141;-59
2022/01/02 11:15:19;;;;;;;31.95;14.78;;;;;;;2.92;70.95;148399.17;1660925;86;21134;-58
2022/01/02 11:17:46;;;;;;;13.25;5.47;;;;;;;2.93;71.42;148403.06;1662399;85;21806;-58
2022/01/02 11:20:19;;;;;;;6.72;1.60;;;;;;;3.00;71.84;148419.84;1662500;84;21136;-58
2022/01/02 11:23:15;;;;;;;3.60;1.50;;;;;;;3.10;71.69;148445.62;1661814;84;21117;-58
2022/01/02 11:25:57;;;;;;;62.10;27.48;;;;;;;3.15;71.41;148458.52;1652058;84;21561;-59
2022/01/02 11:28:46;;;;;;;16.50;8.08;;;;;;;3.18;69.88;148463.67;1652383;86;21164;-58
2022/01/02 11:31:36;;;;;;;3.65;2.20;;;;;;;3.15;70.02;148457.25;1657016;86;21015;-58
2022/01/02 11:34:26;;;;;;;18.00;8.98;;;;;;;3.19;70.31;148466.25;1656805;85;21063;-58
2022/01/02 11:36:55;;;;;;;28.95;12.93;;;;;;;3.18;70.17;148463.67;1656672;85;21067;-59
2022/01/02 11:39:22;;;;;;;18.32;7.92;;;;;;;3.14;70.40;148455.94;1652943;86;21050;-63
2022/01/02 11:41:51;;;;;;;30.25;13.43;;;;;;;3.14;70.56;148455.94;1656727;86;22021;-61
2022/01/02 11:44:19;;;;;;;31.73;12.50;;;;;;;3.19;70.32;148467.56;1656824;85;21225;-62